Hlavní strana
METAR-TAF:

METAR-TAF

Letiště :

Bainbridge, Georgie, Spojené státy americké

zeměpisná šířka: 30-58N, zeměpisná délka: 084-38W, výška: 43 m

Aktuální stav počasí

Zpráva byla vytvořena před 16 minutami, v 18:35 UTC
Severoseverozápadní vítr 10 kt
Teplota 10°C
Vlhkost vzduchu 93%
Tlak 1017 hPa
Viditelnost: 16.1 km
Zataženo ve výšce 1000 ft

METAR: KBGE 151835Z AUTO 34010KT 10SM OVC010 10/09 A3003 RMK AO2 T01020094

Čas: 13:51 (18:51 UTC)


TAF: chybějící

Stav a předpovědi počasí z více než 4 000 letišť (zprávy METAR a TAF).

Červené a žluté tečky na mapě představují dostupné meteorologické stanice.

Když kurzor umístíte na tečku, zobrazí se název stanice.

Pak kliknutím zobrazíte stav a předpověď počasí.

Chcete-li změnit mapu, kliknutím na zelené tlačítko se znaménkem +mapu přiblížíte, kliknutím na zelené tlačítko se znaménkem – mapu oddálíte a kliknutím na zelené šipky přejdete na sousední mapy.


METAR-TAF: